createdAt,value
2023-04-16T00:01:28.414Z,5.95
2023-04-16T00:04:29.772Z,5.40
2023-04-16T00:07:30.809Z,6.30
2023-04-16T00:10:31.975Z,7.40
2023-04-16T00:13:33.640Z,6.70
2023-04-16T00:16:34.562Z,6.35
2023-04-16T00:19:36.319Z,7.38
2023-04-16T00:22:37.546Z,7.03
2023-04-16T00:25:38.880Z,6.47
2023-04-16T00:28:39.716Z,6.13
2023-04-16T00:31:40.625Z,6.43
2023-04-16T00:34:41.503Z,6.60
2023-04-16T00:37:42.755Z,7.05
2023-04-16T00:40:44.163Z,7.28
2023-04-16T00:43:45.931Z,6.90
2023-04-16T00:46:47.560Z,6.15
2023-04-16T00:49:49.358Z,6.32
2023-04-16T00:52:51.084Z,6.30
2023-04-16T00:55:53.115Z,7.10
2023-04-16T00:58:56.861Z,7.05
2023-04-16T01:01:57.937Z,5.68
2023-04-16T01:05:00.788Z,6.85
2023-04-16T01:08:01.882Z,5.72
2023-04-16T01:11:03.555Z,5.13
2023-04-16T01:14:04.914Z,4.90
2023-04-16T01:17:06.447Z,3.67
2023-04-16T01:20:07.950Z,4.53
2023-04-16T01:23:09.484Z,4.40
2023-04-16T01:26:10.665Z,4.07
2023-04-16T01:29:11.853Z,4.38
2023-04-16T01:32:12.869Z,4.97
2023-04-16T01:35:15.367Z,4.72
2023-04-16T01:38:16.981Z,5.32
2023-04-16T01:41:18.483Z,4.55
2023-04-16T01:44:19.325Z,5.30
2023-04-16T01:47:20.977Z,5.47
2023-04-16T01:50:23.751Z,5.70
2023-04-16T01:53:24.784Z,5.68
2023-04-16T01:56:26.697Z,7.03
2023-04-16T01:59:27.657Z,8.50
2023-04-16T02:02:29.536Z,7.47
2023-04-16T02:05:30.800Z,9.15
2023-04-16T02:08:32.256Z,8.75
2023-04-16T02:11:33.620Z,9.50
2023-04-16T02:14:34.591Z,9.02
2023-04-16T02:17:36.262Z,9.13
2023-04-16T02:20:45.597Z,8.55
2023-04-16T02:23:48.127Z,9.20
2023-04-16T02:26:49.888Z,9.50
2023-04-16T02:29:52.843Z,12.18
2023-04-16T02:32:53.660Z,9.23
2023-04-16T02:35:55.716Z,7.97
2023-04-16T02:38:57.053Z,9.02
2023-04-16T02:41:59.602Z,10.13
2023-04-16T02:45:01.113Z,8.52
2023-04-16T02:48:03.029Z,10.23
2023-04-16T02:51:04.487Z,10.93
2023-04-16T02:54:05.328Z,12.18
2023-04-16T02:57:07.204Z,10.88
2023-04-16T03:00:09.017Z,13.02
2023-04-16T03:03:10.493Z,10.77
2023-04-16T03:06:11.970Z,11.02
2023-04-16T03:09:13.456Z,13.38
2023-04-16T03:12:14.620Z,9.95
2023-04-16T03:15:15.626Z,11.30
2023-04-16T03:18:17.105Z,10.90
2023-04-16T03:21:18.476Z,8.75
2023-04-16T03:24:19.467Z,11.32
2023-04-16T03:27:23.525Z,9.90
2023-04-16T03:30:25.046Z,12.25
2023-04-16T03:33:26.474Z,11.93
2023-04-16T03:36:27.930Z,11.32
2023-04-16T03:39:28.970Z,10.77
2023-04-16T03:42:30.240Z,12.48
2023-04-16T03:45:32.400Z,13.48
2023-04-16T03:48:33.453Z,11.93
2023-04-16T03:51:34.772Z,12.15
2023-04-16T03:54:35.999Z,12.00
2023-04-16T03:57:57.702Z,13.07
2023-04-16T04:00:59.250Z,12.15
2023-04-16T04:04:01.226Z,12.93
2023-04-16T04:07:02.541Z,13.25
2023-04-16T04:10:03.928Z,12.27
2023-04-16T04:13:08.604Z,11.63
2023-04-16T04:16:10.703Z,13.52
2023-04-16T04:19:12.091Z,10.95
2023-04-16T04:22:14.008Z,12.80
2023-04-16T04:25:15.731Z,10.68
2023-04-16T04:28:16.936Z,10.32
2023-04-16T04:31:18.461Z,14.23
2023-04-16T04:34:19.684Z,11.13
2023-04-16T04:37:21.613Z,10.60
2023-04-16T04:40:23.119Z,10.80
2023-04-16T04:43:26.891Z,9.80
2023-04-16T04:46:27.883Z,12.57
2023-04-16T04:49:29.135Z,12.77
2023-04-16T04:52:30.062Z,9.48
2023-04-16T04:55:31.102Z,10.93
2023-04-16T04:58:32.432Z,9.95
2023-04-16T05:01:33.475Z,13.90
2023-04-16T05:04:34.419Z,10.25
2023-04-16T05:07:35.910Z,8.38
2023-04-16T05:10:36.944Z,7.68
2023-04-16T05:13:38.393Z,6.95
2023-04-16T05:16:39.885Z,8.02
2023-04-16T05:19:41.058Z,7.53
2023-04-16T05:22:41.929Z,7.03
2023-04-16T05:25:42.684Z,7.95
2023-04-16T05:28:43.446Z,5.38
2023-04-16T05:31:45.027Z,5.18
2023-04-16T05:34:45.972Z,5.25
2023-04-16T05:37:47.290Z,3.90
2023-04-16T05:40:48.108Z,3.40
2023-04-16T05:43:49.039Z,5.38
2023-04-16T05:46:49.819Z,4.90
2023-04-16T05:49:50.719Z,3.70
2023-04-16T05:52:51.698Z,3.45
2023-04-16T05:55:52.576Z,3.08
2023-04-16T05:58:53.496Z,3.47
2023-04-16T06:01:54.407Z,3.70
2023-04-16T06:04:55.270Z,3.60
2023-04-16T06:07:56.841Z,3.85
2023-04-16T06:10:58.136Z,3.58
2023-04-16T06:13:59.363Z,3.35
2023-04-16T06:17:00.179Z,5.88
2023-04-16T06:20:01.150Z,3.60
2023-04-16T06:23:01.896Z,4.00
2023-04-16T06:26:03.076Z,3.97
2023-04-16T06:29:04.984Z,5.28
2023-04-16T06:32:06.094Z,4.50
2023-04-16T06:35:07.870Z,4.88
2023-04-16T06:38:08.739Z,5.50
2023-04-16T06:41:09.681Z,5.45
2023-04-16T06:44:10.647Z,4.95
2023-04-16T06:47:11.884Z,5.75
2023-04-16T06:50:13.200Z,7.85
2023-04-16T06:53:14.040Z,4.95
2023-04-16T06:56:15.371Z,4.65
2023-04-16T06:59:16.492Z,5.75
2023-04-16T07:02:17.473Z,6.03
2023-04-16T07:05:18.791Z,5.95
2023-04-16T07:08:19.627Z,5.60
2023-04-16T07:11:21.221Z,6.82
2023-04-16T07:14:22.397Z,8.40
2023-04-16T07:17:23.281Z,8.75
2023-04-16T07:20:24.116Z,5.75
2023-04-16T07:23:25.650Z,8.63
2023-04-16T07:26:26.919Z,6.38
2023-04-16T07:29:28.110Z,5.85
2023-04-16T07:32:29.459Z,8.57
2023-04-16T07:35:32.121Z,5.90
2023-04-16T07:38:34.808Z,7.40
2023-04-16T07:41:35.758Z,6.72
2023-04-16T07:44:36.962Z,8.13
2023-04-16T07:47:38.050Z,5.35
2023-04-16T07:50:43.858Z,4.22
2023-04-16T07:53:44.790Z,3.50
2023-04-16T07:56:45.640Z,3.65
2023-04-16T07:59:46.924Z,3.75
2023-04-16T08:02:49.004Z,3.38
2023-04-16T08:05:49.856Z,4.22
2023-04-16T08:08:50.966Z,3.33
2023-04-16T08:11:52.112Z,3.45
2023-04-16T08:14:53.235Z,4.47
2023-04-16T08:17:54.271Z,3.17
2023-04-16T08:20:55.584Z,2.53
2023-04-16T08:23:56.863Z,2.95
2023-04-16T08:27:08.158Z,3.47
2023-04-16T08:30:18.650Z,4.72
2023-04-16T08:33:19.981Z,6.07
2023-04-16T08:36:21.136Z,3.17
2023-04-16T08:39:22.401Z,2.85
2023-04-16T08:42:45.239Z,2.22
2023-04-16T08:45:47.918Z,2.80
2023-04-16T08:48:54.180Z,2.58
2023-04-16T08:51:57.174Z,2.22
2023-04-16T08:55:14.942Z,2.40
2023-04-16T08:58:21.329Z,2.70
2023-04-16T09:01:22.841Z,2.45
2023-04-16T09:04:28.725Z,2.30
2023-04-16T09:07:32.258Z,2.33
2023-04-16T09:10:33.462Z,2.85
2023-04-16T09:13:34.828Z,1.80
2023-04-16T09:16:36.234Z,1.55
2023-04-16T09:19:37.433Z,3.17
2023-04-16T09:22:42.576Z,1.58
2023-04-16T09:25:44.275Z,3.65
2023-04-16T09:28:51.522Z,2.05
2023-04-16T09:32:04.532Z,1.90
2023-04-16T09:35:06.151Z,1.13
2023-04-16T09:38:07.422Z,1.70
2023-04-16T09:41:09.069Z,1.60
2023-04-16T09:44:10.163Z,1.83
2023-04-16T09:47:11.040Z,2.13
2023-04-16T09:50:18.664Z,1.30
2023-04-16T09:53:28.560Z,1.67
2023-04-16T09:56:30.643Z,1.77
2023-04-16T09:59:34.406Z,1.90
2023-04-16T10:02:39.526Z,1.45
2023-04-16T10:05:41.636Z,2.05
2023-04-16T10:08:51.328Z,2.55
2023-04-16T10:11:52.618Z,1.60
2023-04-16T10:14:53.611Z,3.28
2023-04-16T10:17:55.964Z,1.60
2023-04-16T10:20:58.136Z,1.83
2023-04-16T10:23:59.481Z,1.77
2023-04-16T10:27:00.925Z,1.80
2023-04-16T10:30:03.197Z,2.05
2023-04-16T10:33:05.814Z,1.60
2023-04-16T10:36:26.800Z,2.03
2023-04-16T10:39:33.224Z,1.65
2023-04-16T10:42:34.851Z,1.88
2023-04-16T10:45:39.165Z,1.80
2023-04-16T10:48:49.652Z,1.92
2023-04-16T10:52:02.533Z,1.63
2023-04-16T10:55:03.577Z,1.90
2023-04-16T10:58:31.855Z,2.17
2023-04-16T11:01:37.009Z,2.10
2023-04-16T11:04:40.495Z,1.85
2023-04-16T11:07:49.872Z,2.20
2023-04-16T11:10:52.081Z,2.03
2023-04-16T11:13:57.161Z,2.00
2023-04-16T11:16:57.822Z,2.15
2023-04-16T11:19:58.840Z,1.80
2023-04-16T11:22:59.729Z,6.53
2023-04-16T11:26:01.313Z,2.40
2023-04-16T11:29:02.694Z,2.30
2023-04-16T11:32:03.772Z,1.92
2023-04-16T11:35:19.112Z,2.38
2023-04-16T11:38:20.142Z,2.58
2023-04-16T11:41:22.109Z,2.47
2023-04-16T11:44:28.303Z,2.50
2023-04-16T11:47:32.105Z,2.05
2023-04-16T11:50:33.301Z,2.00
2023-04-16T11:53:34.222Z,2.20
2023-04-16T11:56:37.459Z,3.42
2023-04-16T12:00:01.554Z,2.60
2023-04-16T12:03:13.730Z,2.67
2023-04-16T12:06:15.677Z,2.80
2023-04-16T12:09:25.573Z,3.67
2023-04-16T12:12:32.531Z,3.28
2023-04-16T12:15:49.154Z,3.00
2023-04-16T12:19:04.224Z,3.17
2023-04-16T12:22:05.629Z,2.42
2023-04-16T12:25:11.949Z,3.15
2023-04-16T12:28:14.068Z,2.78
2023-04-16T12:31:16.044Z,2.83
2023-04-16T12:34:18.438Z,2.90
2023-04-16T12:37:19.295Z,2.78
2023-04-16T12:40:20.216Z,2.67
2023-04-16T12:43:21.696Z,2.90
2023-04-16T12:46:22.829Z,2.40
2023-04-16T12:49:23.701Z,2.67
2023-04-16T12:52:25.984Z,3.05
2023-04-16T12:55:26.943Z,4.38
2023-04-16T12:58:27.722Z,3.92
2023-04-16T13:01:28.793Z,5.15
2023-04-16T13:04:29.768Z,3.83
2023-04-16T13:07:32.619Z,4.30
2023-04-16T13:10:33.948Z,5.25
2023-04-16T13:13:35.345Z,4.78
2023-04-16T13:16:36.572Z,4.47
2023-04-16T13:19:37.620Z,3.95
2023-04-16T13:22:40.151Z,4.70
2023-04-16T13:25:41.484Z,4.97
2023-04-16T13:28:42.530Z,5.22
2023-04-16T13:31:43.528Z,5.57
2023-04-16T13:34:44.763Z,5.13
2023-04-16T13:37:46.109Z,5.15
2023-04-16T13:40:47.260Z,5.20
2023-04-16T13:43:48.178Z,5.60
2023-04-16T13:46:49.176Z,5.93
2023-04-16T13:49:50.542Z,7.07
2023-04-16T13:52:51.687Z,5.55
2023-04-16T13:55:52.810Z,5.78
2023-04-16T13:58:53.631Z,5.95
2023-04-16T14:01:54.789Z,7.75
2023-04-16T14:04:56.065Z,5.50
2023-04-16T14:07:56.952Z,4.85
2023-04-16T14:10:59.115Z,6.22
2023-04-16T14:14:00.395Z,6.85
2023-04-16T14:17:03.511Z,7.45
2023-04-16T14:20:06.383Z,7.75
2023-04-16T14:23:07.685Z,7.40
2023-04-16T14:26:08.872Z,8.43
2023-04-16T14:29:10.317Z,9.50
2023-04-16T14:32:11.927Z,9.10
2023-04-16T14:35:12.899Z,11.65
2023-04-16T14:38:13.750Z,12.40
2023-04-16T14:41:14.806Z,12.13
2023-04-16T14:44:15.778Z,11.18
2023-04-16T14:47:16.930Z,12.88
2023-04-16T14:50:18.008Z,13.48
2023-04-16T14:53:19.237Z,15.90
2023-04-16T14:56:21.002Z,19.33
2023-04-16T14:59:21.649Z,15.80
2023-04-16T15:02:22.724Z,14.40
2023-04-16T15:05:23.922Z,15.13
2023-04-16T15:08:25.241Z,17.63
2023-04-16T15:11:26.934Z,14.68
2023-04-16T15:14:27.920Z,17.13
2023-04-16T15:17:28.880Z,16.67
2023-04-16T15:20:30.399Z,16.48
2023-04-16T15:23:31.996Z,17.42
2023-04-16T15:26:32.935Z,17.30
2023-04-16T15:29:33.693Z,16.70
2023-04-16T15:32:35.194Z,17.55
2023-04-16T15:35:39.091Z,17.85
2023-04-16T15:38:40.107Z,18.40
2023-04-16T15:41:57.077Z,19.42
2023-04-16T15:45:00.730Z,16.73
2023-04-16T15:48:01.644Z,16.98
2023-04-16T15:51:03.093Z,16.13
2023-04-16T15:54:04.498Z,19.33
2023-04-16T15:57:05.789Z,16.33
2023-04-16T16:00:13.998Z,17.73
2023-04-16T16:03:15.018Z,19.25
2023-04-16T16:06:18.061Z,21.58
2023-04-16T16:09:26.818Z,17.02
2023-04-16T16:12:27.893Z,18.35
2023-04-16T16:15:29.465Z,19.55
2023-04-16T16:18:30.660Z,19.58
2023-04-16T16:21:32.750Z,19.60
2023-04-16T16:24:33.705Z,15.02
2023-04-16T16:27:34.540Z,15.85
2023-04-16T16:30:36.321Z,16.52
2023-04-16T16:33:39.711Z,20.25
2023-04-16T16:36:41.507Z,16.75
2023-04-16T16:39:42.840Z,16.67
2023-04-16T16:42:43.782Z,16.85
2023-04-16T16:45:45.314Z,15.60
2023-04-16T16:48:46.617Z,11.13
2023-04-16T16:51:48.857Z,13.38
2023-04-16T16:54:49.748Z,12.55
2023-04-16T16:57:50.664Z,12.70
2023-04-16T17:00:51.578Z,12.35
2023-04-16T17:03:53.112Z,12.95
2023-04-16T17:06:54.371Z,13.45
2023-04-16T17:09:55.973Z,12.48
2023-04-16T17:12:57.114Z,14.23
2023-04-16T17:15:58.676Z,12.45
2023-04-16T17:19:00.348Z,15.05
2023-04-16T17:22:03.223Z,13.80
2023-04-16T17:25:05.088Z,13.27
2023-04-16T17:28:06.194Z,12.18
2023-04-16T17:31:08.676Z,14.02
2023-04-16T17:34:09.843Z,14.90
2023-04-16T17:37:11.328Z,17.10
2023-04-16T17:40:14.661Z,12.63
2023-04-16T17:43:16.460Z,14.65
2023-04-16T17:46:17.484Z,14.38
2023-04-16T17:49:18.967Z,13.65
2023-04-16T17:52:21.563Z,13.02
2023-04-16T17:55:22.393Z,12.93
2023-04-16T17:58:23.522Z,15.93
2023-04-16T18:01:24.532Z,12.23
2023-04-16T18:04:26.091Z,12.55
2023-04-16T18:07:27.405Z,13.10
2023-04-16T18:10:31.690Z,13.38
2023-04-16T18:13:32.882Z,10.95
2023-04-16T18:16:33.911Z,17.10
2023-04-16T18:19:35.872Z,13.93
2023-04-16T18:22:37.338Z,15.80
2023-04-16T18:25:38.175Z,14.40
2023-04-16T18:28:41.642Z,18.17
2023-04-16T18:31:43.534Z,14.07
2023-04-16T18:34:45.032Z,14.35
2023-04-16T18:37:47.537Z,14.38
2023-04-16T18:40:49.983Z,16.77
2023-04-16T18:43:51.512Z,18.40
2023-04-16T18:46:52.557Z,20.70
2023-04-16T18:49:54.024Z,16.65
2023-04-16T18:52:54.742Z,24.52
2023-04-16T18:55:55.824Z,21.77
2023-04-16T18:58:56.793Z,23.58
2023-04-16T19:01:58.235Z,25.90
2023-04-16T19:04:59.069Z,27.75
2023-04-16T19:07:59.879Z,27.17
2023-04-16T19:11:00.794Z,30.33
2023-04-16T19:14:03.534Z,27.85
2023-04-16T19:17:04.785Z,32.42
2023-04-16T19:20:11.556Z,32.20
2023-04-16T19:23:14.117Z,27.48
2023-04-16T19:26:15.723Z,28.67
2023-04-16T19:29:18.261Z,29.38
2023-04-16T19:32:19.275Z,27.08
2023-04-16T19:35:20.033Z,22.88
2023-04-16T19:38:21.037Z,26.88
2023-04-16T19:41:21.998Z,27.05
2023-04-16T19:44:23.490Z,27.20
2023-04-16T19:47:24.557Z,30.55
2023-04-16T19:50:25.873Z,28.70
2023-04-16T19:53:27.166Z,26.83
2023-04-16T19:56:28.015Z,27.35
2023-04-16T19:59:29.208Z,31.02
2023-04-16T20:02:30.315Z,34.50
2023-04-16T20:05:31.789Z,27.95
2023-04-16T20:08:32.685Z,29.65
2023-04-16T20:11:34.886Z,32.13
2023-04-16T20:14:36.226Z,30.80
2023-04-16T20:17:37.771Z,28.60
2023-04-16T20:20:38.896Z,26.20
2023-04-16T20:23:39.830Z,29.83
2023-04-16T20:26:41.213Z,35.58
2023-04-16T20:29:42.598Z,28.33
2023-04-16T20:32:43.495Z,30.05
2023-04-16T20:35:44.817Z,27.20
2023-04-16T20:38:46.771Z,33.30
2023-04-16T20:41:56.778Z,27.40
2023-04-16T20:44:58.077Z,29.00
2023-04-16T20:48:00.087Z,29.08
2023-04-16T20:51:04.329Z,26.65
2023-04-16T20:54:05.452Z,35.88
2023-04-16T20:57:06.238Z,34.97
2023-04-16T21:00:10.557Z,28.60
2023-04-16T21:03:11.783Z,30.33
2023-04-16T21:06:17.936Z,35.20
2023-04-16T21:09:20.049Z,34.83
2023-04-16T21:12:21.359Z,35.33
2023-04-16T21:15:22.186Z,31.45
2023-04-16T21:18:23.496Z,28.65
2023-04-16T21:21:26.380Z,27.58
2023-04-16T21:24:27.317Z,31.52
2023-04-16T21:27:28.837Z,32.40
2023-04-16T21:30:30.151Z,33.33
2023-04-16T21:33:31.308Z,26.40
2023-04-16T21:36:33.904Z,26.70
2023-04-16T21:39:34.756Z,29.17
2023-04-16T21:42:40.057Z,25.85
2023-04-16T21:45:41.305Z,25.48
2023-04-16T21:48:42.168Z,31.13
2023-04-16T21:51:43.250Z,24.25
2023-04-16T21:54:44.929Z,28.83
2023-04-16T21:57:46.347Z,29.05
2023-04-16T22:00:47.666Z,26.92
2023-04-16T22:03:52.396Z,31.60
2023-04-16T22:06:56.393Z,25.50
2023-04-16T22:09:57.621Z,26.95
2023-04-16T22:12:59.673Z,23.80
2023-04-16T22:16:01.682Z,28.27
2023-04-16T22:19:02.632Z,24.40
2023-04-16T22:22:03.917Z,23.40
2023-04-16T22:25:05.605Z,27.27
2023-04-16T22:28:06.609Z,23.27
2023-04-16T22:31:07.894Z,23.58
2023-04-16T22:34:09.074Z,24.05
2023-04-16T22:37:10.167Z,25.02
2023-04-16T22:40:11.866Z,20.55
2023-04-16T22:43:13.104Z,23.10
2023-04-16T22:46:14.232Z,27.52
2023-04-16T22:49:15.619Z,26.73
2023-04-16T22:52:16.304Z,26.85
2023-04-16T22:55:17.697Z,22.95
2023-04-16T22:58:18.577Z,23.02
2023-04-16T23:01:19.482Z,24.80
2023-04-16T23:04:21.021Z,27.27
2023-04-16T23:07:22.271Z,22.90
2023-04-16T23:10:23.065Z,28.88
2023-04-16T23:13:24.059Z,26.67
2023-04-16T23:16:25.095Z,29.02
2023-04-16T23:19:26.383Z,24.17
2023-04-16T23:22:27.189Z,23.52
2023-04-16T23:25:27.960Z,22.38
2023-04-16T23:28:28.743Z,28.63
2023-04-16T23:31:29.692Z,24.10
2023-04-16T23:34:30.826Z,30.17
2023-04-16T23:37:31.820Z,28.63
2023-04-16T23:40:33.078Z,33.03
2023-04-16T23:43:35.279Z,28.85
2023-04-16T23:46:36.468Z,27.75
2023-04-16T23:49:38.030Z,31.83
2023-04-16T23:52:39.327Z,27.65
2023-04-16T23:55:40.217Z,28.20
2023-04-16T23:58:41.149Z,27.67
